McIntyre, Louisiana
Current Conditions -  °F | °C
As of 4:56 AM on Wednesday 26 Nov 2014 (Local Time) from KMNE Reporting Station
Clear Clear  
Wind Chill: 34°   Ceiling: Unl
Heat Index: 37°   Visibility: 10mi
Dew Point: 34°   Wind: 5mph
Humidity: 87%   Direction: 130°SE
Pressure: 30.13"   Gusts: NA
Location:  32.7093°N, 93.3068°W
Report Text: KMNE 261056Z AUTO 13004KT 10SM CLR 03/01 A3013 RMK AO2
Loading
Personal Weather Stations






























Interactive Weather Map New forecast layout! Learn more

10-Day Weather Forecast

Advertisements
Track Severe Weather on mobile